Terminal Aerodrome Forecast
Issued by NWS Sioux Falls, SD

Home | Current Version | Previous Version | Graphics & Text | Print | Product List | Glossary Off
Versions: 1 2 3 4 5 6 7 8 9 10 11 12 13 14 15 16 17 18

000
FTUS43 KFSD 180520
TAFHON
TAF
KHON 180520Z 1806/1906 13010KT P6SM SCT110 OVC200
     FM180800 13015G22KT P6SM BKN110
     FM181200 18012KT P6SM BKN200
     FM181800 27010KT P6SM BKN015
     FM182000 35013KT P6SM OVC015
     FM182300 35015G23KT P6SM OVC010
     FM190400 36015G23KT 4SM -SN OVC010=

USA.gov is the U.S. government's official web portal to all federal, state and local government web resources and services.